createdAt,value
2022-09-04T00:00:38.265Z,2.33
2022-09-04T00:03:15.671Z,2.35
2022-09-04T00:05:51.994Z,2.45
2022-09-04T00:08:28.536Z,2.35
2022-09-04T00:10:57.736Z,2.50
2022-09-04T00:13:27.540Z,2.63
2022-09-04T00:16:01.095Z,2.50
2022-09-04T00:18:33.360Z,2.20
2022-09-04T00:21:04.558Z,2.10
2022-09-04T00:23:37.084Z,2.28
2022-09-04T00:26:08.180Z,2.22
2022-09-04T00:28:39.316Z,2.35
2022-09-04T00:31:13.462Z,2.35
2022-09-04T00:33:47.208Z,2.05
2022-09-04T00:36:17.191Z,2.40
2022-09-04T00:38:48.751Z,2.15
2022-09-04T00:41:21.495Z,2.20
2022-09-04T00:44:13.315Z,2.13
2022-09-04T00:47:02.897Z,2.00
2022-09-04T00:49:42.016Z,2.28
2022-09-04T00:52:19.003Z,2.30
2022-09-04T00:54:58.533Z,2.05
2022-09-04T00:57:41.042Z,2.17
2022-09-04T01:00:10.864Z,2.30
2022-09-04T01:02:45.529Z,2.10
2022-09-04T01:05:20.336Z,1.83
2022-09-04T01:07:50.414Z,2.38
2022-09-04T01:10:30.004Z,2.03
2022-09-04T01:13:00.980Z,2.00
2022-09-04T01:15:32.145Z,2.00
2022-09-04T01:18:03.282Z,2.20
2022-09-04T01:20:44.061Z,2.10
2022-09-04T01:23:18.294Z,2.45
2022-09-04T01:25:57.475Z,1.92
2022-09-04T01:28:29.302Z,2.30
2022-09-04T01:31:00.559Z,2.20
2022-09-04T01:33:30.562Z,1.85
2022-09-04T01:36:02.417Z,1.90
2022-09-04T01:38:34.604Z,2.00
2022-09-04T01:41:07.224Z,2.28
2022-09-04T01:43:35.323Z,2.10
2022-09-04T01:46:17.952Z,2.10
2022-09-04T01:48:48.236Z,1.90
2022-09-04T01:51:21.761Z,2.15
2022-09-04T01:53:54.595Z,2.00
2022-09-04T01:56:27.360Z,1.90
2022-09-04T01:58:56.803Z,1.92
2022-09-04T02:01:30.077Z,2.08
2022-09-04T02:04:01.213Z,1.80
2022-09-04T02:06:33.104Z,2.10
2022-09-04T02:09:10.786Z,2.40
2022-09-04T02:11:42.593Z,1.95
2022-09-04T02:14:17.694Z,2.15
2022-09-04T02:16:56.286Z,2.20
2022-09-04T02:19:31.811Z,2.10
2022-09-04T02:22:05.792Z,2.20
2022-09-04T02:24:36.602Z,2.30
2022-09-04T02:27:06.959Z,2.15
2022-09-04T02:29:37.570Z,2.22
2022-09-04T02:32:09.560Z,2.03
2022-09-04T02:34:43.459Z,2.10
2022-09-04T02:37:15.032Z,2.30
2022-09-04T02:39:48.679Z,2.20
2022-09-04T02:42:22.191Z,2.05
2022-09-04T02:44:55.164Z,2.28
2022-09-04T02:47:24.936Z,2.08
2022-09-04T02:49:57.701Z,2.25
2022-09-04T02:52:33.711Z,2.30
2022-09-04T02:55:17.919Z,2.22
2022-09-04T02:57:54.940Z,2.28
2022-09-04T03:00:29.409Z,2.33
2022-09-04T03:03:00.645Z,2.10
2022-09-04T03:05:31.202Z,2.25
2022-09-04T03:08:01.256Z,2.10
2022-09-04T03:10:32.008Z,2.45
2022-09-04T03:13:05.147Z,2.20
2022-09-04T03:15:36.463Z,2.30
2022-09-04T03:18:06.435Z,2.28
2022-09-04T03:20:38.439Z,2.05
2022-09-04T03:23:10.996Z,2.40
2022-09-04T03:25:56.959Z,2.30
2022-09-04T03:28:34.188Z,2.50
2022-09-04T03:31:05.975Z,2.10
2022-09-04T03:33:36.924Z,2.00
2022-09-04T03:36:09.779Z,2.00
2022-09-04T03:38:42.415Z,2.40
2022-09-04T03:41:13.869Z,2.75
2022-09-04T03:43:57.868Z,2.30
2022-09-04T03:46:31.639Z,2.40
2022-09-04T03:49:08.572Z,2.38
2022-09-04T03:51:40.272Z,2.20
2022-09-04T03:54:12.120Z,2.40
2022-09-04T03:56:51.264Z,2.78
2022-09-04T03:59:27.504Z,2.35
2022-09-04T04:02:00.093Z,2.28
2022-09-04T04:04:47.264Z,2.20
2022-09-04T04:07:22.022Z,2.08
2022-09-04T04:09:59.608Z,2.03
2022-09-04T04:12:33.881Z,2.00
2022-09-04T04:15:14.719Z,1.85
2022-09-04T04:17:54.490Z,2.20
2022-09-04T04:20:27.078Z,2.20
2022-09-04T04:23:00.659Z,2.40
2022-09-04T04:25:41.235Z,2.40
2022-09-04T04:28:20.014Z,2.50
2022-09-04T04:30:52.365Z,2.17
2022-09-04T04:33:28.315Z,2.17
2022-09-04T04:36:02.136Z,2.10
2022-09-04T04:38:39.228Z,2.28
2022-09-04T04:41:11.961Z,1.90
2022-09-04T04:43:47.164Z,2.10
2022-09-04T04:46:20.141Z,2.90
2022-09-04T04:49:00.100Z,2.90
2022-09-04T04:51:39.670Z,2.35
2022-09-04T04:54:18.283Z,2.10
2022-09-04T04:56:51.338Z,2.42
2022-09-04T04:59:23.325Z,2.30
2022-09-04T05:01:56.490Z,2.00
2022-09-04T05:04:31.665Z,1.98
2022-09-04T05:07:00.906Z,2.45
2022-09-04T05:09:35.126Z,2.10
2022-09-04T05:12:07.361Z,1.88
2022-09-04T05:14:42.120Z,1.92
2022-09-04T05:17:21.836Z,2.05
2022-09-04T05:19:53.263Z,2.08
2022-09-04T05:22:24.157Z,2.03
2022-09-04T05:25:01.213Z,2.28
2022-09-04T05:27:49.872Z,1.90
2022-09-04T05:30:19.363Z,2.00
2022-09-04T05:32:53.302Z,2.00
2022-09-04T05:35:23.856Z,1.92
2022-09-04T05:37:56.667Z,1.90
2022-09-04T05:40:29.824Z,2.10
2022-09-04T05:43:05.491Z,2.10
2022-09-04T05:45:39.800Z,1.90
2022-09-04T05:48:15.244Z,2.00
2022-09-04T05:50:50.692Z,2.00
2022-09-04T05:53:28.638Z,2.00
2022-09-04T05:56:04.628Z,2.03
2022-09-04T05:58:41.812Z,1.73
2022-09-04T06:01:15.419Z,1.77
2022-09-04T06:03:55.567Z,1.70
2022-09-04T06:06:26.709Z,1.92
2022-09-04T06:09:09.235Z,1.80
2022-09-04T06:11:51.391Z,1.77
2022-09-04T06:14:27.715Z,1.85
2022-09-04T06:17:01.325Z,1.70
2022-09-04T06:19:39.612Z,1.73
2022-09-04T06:22:23.955Z,1.70
2022-09-04T06:25:09.266Z,1.67
2022-09-04T06:27:46.283Z,1.73
2022-09-04T06:30:14.639Z,1.63
2022-09-04T06:32:56.880Z,1.50
2022-09-04T06:35:36.264Z,1.40
2022-09-04T06:38:18.385Z,1.60
2022-09-04T06:40:55.525Z,1.23
2022-09-04T06:43:29.761Z,1.50
2022-09-04T06:46:03.874Z,1.42
2022-09-04T06:48:40.224Z,1.60
2022-09-04T06:51:18.399Z,1.55
2022-09-04T06:53:50.128Z,1.42
2022-09-04T06:56:26.631Z,1.83
2022-09-04T06:59:01.528Z,1.50
2022-09-04T07:01:40.247Z,1.38
2022-09-04T07:04:14.214Z,1.23
2022-09-04T07:06:49.942Z,1.58
2022-09-04T07:09:18.388Z,1.50
2022-09-04T07:11:56.122Z,1.33
2022-09-04T07:14:43.429Z,1.55
2022-09-04T07:17:15.700Z,1.65
2022-09-04T07:19:52.124Z,1.40
2022-09-04T07:22:31.324Z,1.40
2022-09-04T07:25:05.792Z,1.60
2022-09-04T07:27:40.362Z,1.45
2022-09-04T07:30:09.213Z,1.52
2022-09-04T07:32:39.148Z,1.83
2022-09-04T07:35:08.927Z,1.50
2022-09-04T07:37:41.421Z,1.58
2022-09-04T07:40:11.420Z,1.75
2022-09-04T07:42:41.190Z,1.67
2022-09-04T07:45:13.433Z,1.52
2022-09-04T07:47:44.145Z,1.83
2022-09-04T07:50:14.320Z,1.92
2022-09-04T07:52:51.865Z,2.00
2022-09-04T07:55:24.292Z,1.80
2022-09-04T07:58:03.924Z,1.85
2022-09-04T08:00:34.699Z,1.73
2022-09-04T08:03:13.492Z,2.03
2022-09-04T08:05:45.836Z,2.03
2022-09-04T08:08:44.357Z,2.08
2022-09-04T08:11:30.398Z,2.15
2022-09-04T08:14:09.973Z,2.30
2022-09-04T08:16:40.504Z,2.40
2022-09-04T08:19:15.721Z,2.30
2022-09-04T08:21:44.258Z,2.40
2022-09-04T08:24:30.807Z,2.30
2022-09-04T08:27:06.288Z,2.90
2022-09-04T08:29:43.146Z,2.42
2022-09-04T08:32:17.568Z,2.72
2022-09-04T08:35:00.230Z,2.30
2022-09-04T08:37:29.347Z,2.55
2022-09-04T08:40:03.784Z,2.53
2022-09-04T08:43:04.923Z,2.70
2022-09-04T08:46:05.686Z,2.33
2022-09-04T08:49:11.728Z,2.50
2022-09-04T08:52:00.068Z,2.53
2022-09-04T08:54:41.183Z,2.30
2022-09-04T08:57:28.529Z,2.47
2022-09-04T09:00:06.590Z,2.33
2022-09-04T09:02:47.982Z,2.55
2022-09-04T09:05:30.484Z,3.10
2022-09-04T09:08:14.487Z,2.72
2022-09-04T09:10:56.990Z,2.70
2022-09-04T09:13:43.397Z,2.83
2022-09-04T09:16:19.710Z,2.60
2022-09-04T09:18:57.020Z,2.55
2022-09-04T09:21:32.011Z,2.45
2022-09-04T09:24:16.560Z,2.58
2022-09-04T09:26:51.490Z,2.80
2022-09-04T09:29:37.088Z,2.97
2022-09-04T09:32:17.616Z,2.75
2022-09-04T09:35:05.039Z,2.70
2022-09-04T09:38:04.626Z,2.78
2022-09-04T09:41:00.405Z,3.10
2022-09-04T09:43:50.816Z,3.10
2022-09-04T09:46:47.134Z,2.85
2022-09-04T09:49:41.981Z,2.78
2022-09-04T09:52:15.711Z,3.05
2022-09-04T09:54:58.130Z,3.00
2022-09-04T09:57:44.535Z,2.97
2022-09-04T10:00:15.131Z,2.83
2022-09-04T10:03:07.672Z,2.92
2022-09-04T10:05:51.611Z,2.92
2022-09-04T10:08:35.867Z,3.10
2022-09-04T10:11:10.026Z,2.80
2022-09-04T10:13:48.344Z,2.92
2022-09-04T10:16:47.693Z,2.90
2022-09-04T10:19:24.813Z,2.88
2022-09-04T10:22:16.648Z,2.63
2022-09-04T10:24:57.512Z,2.97
2022-09-04T10:27:45.544Z,2.85
2022-09-04T10:30:15.685Z,2.80
2022-09-04T10:32:58.116Z,2.53
2022-09-04T10:35:27.739Z,2.83
2022-09-04T10:38:15.497Z,2.95
2022-09-04T10:40:51.465Z,2.80
2022-09-04T10:43:31.372Z,2.63
2022-09-04T10:46:02.096Z,2.95
2022-09-04T10:48:41.230Z,2.83
2022-09-04T10:51:42.164Z,2.75
2022-09-04T10:54:31.154Z,3.00
2022-09-04T10:57:05.853Z,2.70
2022-09-04T10:59:45.521Z,3.00
2022-09-04T11:02:24.341Z,2.85
2022-09-04T11:05:09.843Z,3.10
2022-09-04T11:07:48.376Z,2.90
2022-09-04T11:10:22.452Z,3.25
2022-09-04T11:13:10.289Z,3.17
2022-09-04T11:16:02.257Z,2.83
2022-09-04T11:18:45.391Z,3.42
2022-09-04T11:21:32.375Z,2.75
2022-09-04T11:24:14.927Z,3.10
2022-09-04T11:27:04.741Z,3.22
2022-09-04T11:29:41.191Z,2.90
2022-09-04T11:32:17.421Z,3.20
2022-09-04T11:35:13.618Z,3.13
2022-09-04T11:37:57.891Z,3.30
2022-09-04T11:40:44.361Z,3.00
2022-09-04T11:43:36.843Z,3.00
2022-09-04T11:46:17.903Z,3.13
2022-09-04T11:48:54.164Z,3.17
2022-09-04T11:51:48.820Z,3.28
2022-09-04T11:54:25.415Z,3.33
2022-09-04T11:57:02.545Z,3.00
2022-09-04T11:59:47.323Z,3.30
2022-09-04T12:02:30.174Z,3.20
2022-09-04T12:05:04.755Z,3.10
2022-09-04T12:07:43.251Z,2.75
2022-09-04T12:10:21.683Z,3.13
2022-09-04T12:13:07.623Z,3.00
2022-09-04T12:15:55.192Z,2.88
2022-09-04T12:18:51.713Z,2.88
2022-09-04T12:21:37.682Z,3.22
2022-09-04T12:24:11.651Z,3.10
2022-09-04T12:27:00.059Z,2.90
2022-09-04T12:29:45.376Z,3.30
2022-09-04T12:32:26.312Z,3.38
2022-09-04T12:35:06.596Z,3.10
2022-09-04T12:37:49.292Z,3.10
2022-09-04T12:40:35.206Z,3.17
2022-09-04T12:43:16.576Z,3.17
2022-09-04T12:45:47.978Z,3.05
2022-09-04T12:48:20.235Z,3.33
2022-09-04T12:50:50.629Z,3.33
2022-09-04T12:53:37.076Z,3.05
2022-09-04T12:56:10.095Z,3.58
2022-09-04T12:58:48.935Z,3.30
2022-09-04T13:01:21.720Z,2.92
2022-09-04T13:03:58.789Z,3.22
2022-09-04T13:06:33.097Z,3.80
2022-09-04T13:09:08.414Z,3.30
2022-09-04T13:11:45.241Z,3.08
2022-09-04T13:14:44.006Z,3.50
2022-09-04T13:17:16.740Z,3.47
2022-09-04T13:19:49.878Z,3.28
2022-09-04T13:22:25.240Z,3.10
2022-09-04T13:25:02.320Z,3.20
2022-09-04T13:27:34.401Z,3.13
2022-09-04T13:30:07.712Z,3.10
2022-09-04T13:32:40.554Z,3.53
2022-09-04T13:35:18.789Z,3.33
2022-09-04T13:37:55.756Z,3.20
2022-09-04T13:40:38.779Z,3.30
2022-09-04T13:43:27.105Z,2.88
2022-09-04T13:45:55.487Z,3.08
2022-09-04T13:48:32.368Z,3.25
2022-09-04T13:51:02.639Z,3.00
2022-09-04T13:53:53.548Z,3.40
2022-09-04T13:56:26.223Z,3.10
2022-09-04T13:58:58.858Z,3.40
2022-09-04T14:01:29.789Z,3.00
2022-09-04T14:03:59.986Z,2.90
2022-09-04T14:06:31.060Z,2.85
2022-09-04T14:09:05.605Z,2.90
2022-09-04T14:11:51.518Z,3.13
2022-09-04T14:14:37.393Z,2.97
2022-09-04T14:17:07.096Z,3.20
2022-09-04T14:19:43.740Z,2.65
2022-09-04T14:22:19.219Z,3.25
2022-09-04T14:24:49.312Z,3.35
2022-09-04T14:27:20.865Z,3.35
2022-09-04T14:29:54.208Z,2.90
2022-09-04T14:32:24.996Z,3.25
2022-09-04T14:35:02.303Z,2.90
2022-09-04T14:37:44.172Z,2.80
2022-09-04T14:40:14.407Z,2.78
2022-09-04T14:42:46.505Z,3.38
2022-09-04T14:45:19.260Z,3.45
2022-09-04T14:47:53.589Z,3.20
2022-09-04T14:50:23.430Z,3.20
2022-09-04T14:52:55.490Z,2.90
2022-09-04T14:55:25.625Z,2.72
2022-09-04T14:57:56.152Z,2.65
2022-09-04T15:00:24.749Z,3.13
2022-09-04T15:02:57.967Z,2.92
2022-09-04T15:05:27.616Z,3.30
2022-09-04T15:07:59.157Z,3.33
2022-09-04T15:10:31.483Z,2.95
2022-09-04T15:13:22.890Z,3.05
2022-09-04T15:15:54.466Z,3.40
2022-09-04T15:18:24.876Z,2.90
2022-09-04T15:20:54.287Z,2.72
2022-09-04T15:23:27.875Z,3.30
2022-09-04T15:25:59.540Z,3.03
2022-09-04T15:28:30.030Z,3.15
2022-09-04T15:31:16.467Z,3.30
2022-09-04T15:33:45.292Z,3.25
2022-09-04T15:36:16.220Z,3.20
2022-09-04T15:38:50.572Z,2.60
2022-09-04T15:41:20.133Z,3.38
2022-09-04T15:43:48.443Z,3.17
2022-09-04T15:46:22.457Z,3.40
2022-09-04T15:48:53.467Z,3.10
2022-09-04T15:51:24.600Z,3.20
2022-09-04T15:54:13.133Z,3.25
2022-09-04T15:56:45.271Z,3.25
2022-09-04T15:59:15.955Z,3.60
2022-09-04T16:01:46.205Z,3.33
2022-09-04T16:04:18.322Z,3.45
2022-09-04T16:06:48.342Z,3.30
2022-09-04T16:09:21.503Z,3.22
2022-09-04T16:11:55.931Z,3.10
2022-09-04T16:14:24.937Z,3.25
2022-09-04T16:16:54.145Z,2.97
2022-09-04T16:19:25.697Z,3.03
2022-09-04T16:22:02.781Z,3.10
2022-09-04T16:24:35.932Z,3.58
2022-09-04T16:27:07.084Z,3.45
2022-09-04T16:29:36.525Z,3.22
2022-09-04T16:32:06.722Z,3.45
2022-09-04T16:34:37.507Z,3.30
2022-09-04T16:37:10.167Z,3.25
2022-09-04T16:39:42.893Z,3.42
2022-09-04T16:42:13.460Z,3.10
2022-09-04T16:44:44.229Z,3.50
2022-09-04T16:47:16.399Z,3.00
2022-09-04T16:49:48.123Z,3.58
2022-09-04T16:52:37.389Z,3.58
2022-09-04T16:55:09.944Z,3.65
2022-09-04T16:57:41.263Z,3.30
2022-09-04T17:00:10.241Z,3.88
2022-09-04T17:02:44.140Z,3.53
2022-09-04T17:05:18.498Z,3.42
2022-09-04T17:07:49.939Z,3.30
2022-09-04T17:10:28.532Z,3.65
2022-09-04T17:13:05.984Z,3.58
2022-09-04T17:15:38.031Z,3.40
2022-09-04T17:18:12.079Z,3.25
2022-09-04T17:22:26.348Z,3.72
2022-09-04T17:28:58.916Z,4.03
2022-09-04T17:29:17.341Z,3.83
2022-09-04T17:29:34.312Z,3.55
2022-09-04T17:32:20.519Z,4.15
2022-09-04T17:40:41.219Z,3.80
2022-09-04T17:40:41.302Z,3.78
2022-09-04T17:41:32.399Z,4.38
2022-09-04T17:43:32.834Z,4.10
2022-09-04T17:46:09.316Z,4.45
2022-09-04T17:48:40.368Z,4.15
2022-09-04T17:51:08.660Z,4.20
2022-09-04T17:53:39.029Z,3.42
2022-09-04T17:56:10.963Z,4.07
2022-09-04T17:58:43.556Z,3.80
2022-09-04T18:01:15.764Z,4.97
2022-09-04T18:04:02.760Z,4.00
2022-09-04T18:06:37.676Z,4.43
2022-09-04T18:09:10.850Z,3.58
2022-09-04T18:11:59.943Z,3.65
2022-09-04T18:14:34.948Z,4.07
2022-09-04T18:17:12.452Z,3.63
2022-09-04T18:19:44.245Z,3.72
2022-09-04T18:22:26.575Z,3.47
2022-09-04T18:25:16.446Z,3.60
2022-09-04T18:28:07.538Z,3.60
2022-09-04T18:37:05.500Z,3.20
2022-09-04T18:37:20.960Z,3.40
2022-09-04T18:37:21.161Z,3.50
2022-09-04T18:39:25.061Z,3.40
2022-09-04T18:47:13.400Z,3.97
2022-09-04T18:50:29.200Z,3.40
2022-09-04T18:50:39.877Z,3.22
2022-09-04T18:53:33.305Z,3.28
2022-09-04T18:56:03.534Z,3.53
2022-09-04T18:58:48.709Z,3.40
2022-09-04T19:01:26.900Z,2.92
2022-09-04T19:03:58.053Z,3.67
2022-09-04T19:06:38.138Z,2.92
2022-09-04T19:09:11.131Z,4.38
2022-09-04T19:11:43.383Z,3.28
2022-09-04T19:14:15.182Z,3.03
2022-09-04T19:16:44.461Z,2.80
2022-09-04T19:19:17.966Z,3.08
2022-09-04T19:21:57.941Z,2.90
2022-09-04T19:24:31.418Z,2.53
2022-09-04T19:27:26.895Z,3.00
2022-09-04T19:30:03.576Z,2.90
2022-09-04T19:32:52.759Z,2.58
2022-09-04T19:35:29.932Z,2.45
2022-09-04T19:43:02.259Z,2.75
2022-09-04T19:46:03.403Z,2.83
2022-09-04T19:46:03.816Z,2.80
2022-09-04T19:46:42.380Z,2.67
2022-09-04T19:52:50.046Z,2.95
2022-09-04T19:53:31.774Z,2.85
2022-09-04T19:55:23.629Z,2.92
2022-09-04T19:57:45.851Z,3.30
2022-09-04T20:00:42.220Z,2.45
2022-09-04T20:03:09.560Z,2.47
2022-09-04T20:05:40.253Z,2.97
2022-09-04T20:08:11.974Z,2.72
2022-09-04T20:10:45.389Z,2.85
2022-09-04T20:13:19.489Z,2.47
2022-09-04T20:15:52.595Z,2.92
2022-09-04T20:18:23.707Z,2.40
2022-09-04T20:20:56.263Z,2.85
2022-09-04T20:23:35.057Z,2.88
2022-09-04T20:26:06.816Z,2.35
2022-09-04T20:28:43.374Z,2.42
2022-09-04T20:31:28.457Z,2.88
2022-09-04T20:34:10.701Z,2.67
2022-09-04T20:36:43.113Z,2.38
2022-09-04T20:39:20.690Z,2.67
2022-09-04T20:41:51.342Z,2.47
2022-09-04T20:44:21.321Z,2.75
2022-09-04T20:52:42.500Z,2.20
2022-09-04T20:53:05.161Z,2.70
2022-09-04T20:53:08.640Z,2.40
2022-09-04T20:55:46.223Z,2.80
2022-09-04T21:03:14.377Z,2.10
2022-09-04T21:03:24.230Z,2.65
2022-09-04T21:04:15.302Z,2.45
2022-09-04T21:06:48.340Z,2.78
2022-09-04T21:09:22.612Z,2.40
2022-09-04T21:11:54.264Z,2.30
2022-09-04T21:14:27.397Z,2.63
2022-09-04T21:17:35.088Z,2.40
2022-09-04T21:20:11.799Z,2.58
2022-09-04T21:22:45.488Z,2.70
2022-09-04T21:25:28.278Z,2.38
2022-09-04T21:28:15.818Z,2.53
2022-09-04T21:30:53.900Z,2.40
2022-09-04T21:33:27.717Z,2.42
2022-09-04T21:36:26.532Z,2.63
2022-09-04T21:38:59.680Z,2.40
2022-09-04T21:41:40.927Z,2.25
2022-09-04T21:44:28.712Z,2.10
2022-09-04T21:47:08.734Z,2.22
2022-09-04T21:49:55.729Z,2.50
2022-09-04T21:52:28.938Z,2.45
2022-09-04T21:56:27.556Z,2.50
2022-09-04T22:02:36.871Z,2.53
2022-09-04T22:02:40.455Z,2.25
2022-09-04T22:04:03.036Z,2.58
2022-09-04T22:07:37.646Z,2.00
2022-09-04T22:13:35.127Z,2.40
2022-09-04T22:13:38.742Z,2.15
2022-09-04T22:15:29.327Z,2.05
2022-09-04T22:18:03.787Z,2.38
2022-09-04T22:20:47.104Z,1.98
2022-09-04T22:23:29.574Z,2.30
2022-09-04T22:26:23.286Z,2.33
2022-09-04T22:28:53.379Z,2.00
2022-09-04T22:31:54.075Z,2.35
2022-09-04T22:34:33.310Z,2.15
2022-09-04T22:37:28.061Z,2.13
2022-09-04T22:40:03.954Z,2.00
2022-09-04T22:42:36.982Z,2.20
2022-09-04T22:45:19.438Z,2.22
2022-09-04T22:47:55.500Z,2.20
2022-09-04T22:50:48.762Z,2.33
2022-09-04T22:53:33.412Z,2.20
2022-09-04T22:56:24.178Z,2.20
2022-09-04T22:59:25.582Z,2.10
2022-09-04T23:02:09.939Z,2.20
2022-09-04T23:04:58.512Z,2.17
2022-09-04T23:12:28.569Z,2.15
2022-09-04T23:13:53.397Z,2.00
2022-09-04T23:13:58.088Z,1.98
2022-09-04T23:16:26.267Z,1.95
2022-09-04T23:23:10.812Z,2.00
2022-09-04T23:26:44.478Z,1.95
2022-09-04T23:26:46.614Z,2.15
2022-09-04T23:28:02.522Z,2.20
2022-09-04T23:30:53.208Z,1.70
2022-09-04T23:33:33.301Z,1.88
2022-09-04T23:36:07.581Z,2.33
2022-09-04T23:38:42.540Z,2.50
2022-09-04T23:41:17.707Z,2.10
2022-09-04T23:44:12.797Z,2.20
2022-09-04T23:46:48.242Z,2.20
2022-09-04T23:49:25.841Z,1.90
2022-09-04T23:51:56.347Z,2.20
2022-09-04T23:54:30.924Z,2.40
2022-09-04T23:57:00.713Z,2.00
2022-09-04T23:59:42.030Z,1.95
